createdAt,value
2022-11-28T00:02:17.372Z,13.83
2022-11-28T00:04:48.067Z,14.03
2022-11-28T00:07:19.391Z,12.50
2022-11-28T00:09:49.271Z,13.50
2022-11-28T00:12:19.625Z,16.70
2022-11-28T00:14:49.900Z,14.30
2022-11-28T00:17:19.754Z,14.83
2022-11-28T00:19:49.413Z,15.10
2022-11-28T00:22:21.071Z,14.23
2022-11-28T00:24:50.888Z,12.03
2022-11-28T00:27:21.225Z,13.00
2022-11-28T00:29:51.861Z,13.83
2022-11-28T00:32:21.906Z,13.40
2022-11-28T00:34:51.795Z,14.70
2022-11-28T00:37:22.765Z,13.60
2022-11-28T00:39:52.658Z,11.33
2022-11-28T00:42:22.529Z,13.57
2022-11-28T00:44:53.711Z,13.43
2022-11-28T00:47:23.331Z,12.37
2022-11-28T00:49:52.915Z,11.10
2022-11-28T00:52:24.072Z,13.23
2022-11-28T00:54:53.830Z,13.67
2022-11-28T00:57:23.936Z,11.53
2022-11-28T00:59:53.671Z,13.00
2022-11-28T01:02:23.546Z,11.97
2022-11-28T01:04:53.206Z,13.60
2022-11-28T01:07:28.882Z,11.63
2022-11-28T01:10:01.031Z,10.17
2022-11-28T01:12:31.006Z,10.37
2022-11-28T01:15:01.161Z,11.57
2022-11-28T01:17:31.391Z,11.03
2022-11-28T01:20:01.145Z,11.10
2022-11-28T01:22:32.335Z,11.40
2022-11-28T01:25:02.035Z,12.07
2022-11-28T01:27:31.957Z,12.33
2022-11-28T01:30:01.887Z,11.60
2022-11-28T01:32:31.591Z,13.00
2022-11-28T01:35:01.709Z,10.80
2022-11-28T01:37:33.389Z,13.70
2022-11-28T01:40:03.831Z,12.10
2022-11-28T01:42:33.536Z,11.60
2022-11-28T01:45:11.935Z,11.90
2022-11-28T01:47:42.306Z,13.10
2022-11-28T01:50:12.159Z,12.27
2022-11-28T01:52:46.050Z,11.90
2022-11-28T01:55:18.496Z,13.60
2022-11-28T01:57:48.185Z,12.43
2022-11-28T02:00:21.912Z,14.00
2022-11-28T02:02:54.345Z,12.30
2022-11-28T02:05:24.519Z,12.23
2022-11-28T02:07:56.264Z,12.40
2022-11-28T02:10:29.404Z,12.80
2022-11-28T02:13:26.499Z,13.13
2022-11-28T02:16:12.965Z,11.27
2022-11-28T02:18:56.353Z,11.27
2022-11-28T02:21:40.859Z,12.30
2022-11-28T02:24:46.630Z,10.80
2022-11-28T02:27:39.132Z,11.33
2022-11-28T02:30:18.314Z,11.00
2022-11-28T02:33:14.351Z,11.73
2022-11-28T02:35:55.697Z,10.40
2022-11-28T02:38:36.839Z,10.33
2022-11-28T02:41:13.428Z,10.40
2022-11-28T02:43:50.120Z,11.73
2022-11-28T02:46:27.243Z,12.23
2022-11-28T02:49:03.300Z,9.90
2022-11-28T02:51:36.784Z,10.30
2022-11-28T02:54:09.706Z,11.00
2022-11-28T02:56:39.254Z,10.87
2022-11-28T02:59:32.984Z,11.73
2022-11-28T03:02:03.389Z,12.10
2022-11-28T03:04:41.595Z,11.07
2022-11-28T03:07:22.058Z,9.70
2022-11-28T03:10:02.180Z,11.43
2022-11-28T03:12:38.173Z,9.97
2022-11-28T03:15:11.565Z,10.90
2022-11-28T03:17:49.790Z,10.77
2022-11-28T03:20:26.129Z,10.80
2022-11-28T03:23:06.390Z,9.90
2022-11-28T03:25:42.308Z,11.90
2022-11-28T03:28:16.514Z,9.53
2022-11-28T03:30:48.820Z,9.37
2022-11-28T03:33:21.676Z,9.43
2022-11-28T03:35:59.459Z,10.13
2022-11-28T03:38:33.325Z,9.80
2022-11-28T03:41:08.497Z,9.30
2022-11-28T03:43:43.451Z,9.57
2022-11-28T03:46:18.483Z,9.90
2022-11-28T03:48:50.824Z,8.90
2022-11-28T03:51:24.184Z,8.53
2022-11-28T03:54:02.481Z,9.70
2022-11-28T03:56:40.414Z,9.47
2022-11-28T03:59:12.640Z,10.07
2022-11-28T04:01:52.888Z,9.60
2022-11-28T04:04:26.765Z,9.40
2022-11-28T04:07:00.256Z,9.17
2022-11-28T04:09:39.744Z,8.80
2022-11-28T04:12:12.555Z,10.00
2022-11-28T04:14:45.773Z,8.90
2022-11-28T04:17:18.930Z,9.30
2022-11-28T04:19:53.590Z,9.20
2022-11-28T04:22:28.977Z,8.63
2022-11-28T04:25:02.023Z,10.10
2022-11-28T04:27:37.135Z,8.17
2022-11-28T04:30:09.400Z,8.57
2022-11-28T04:32:43.442Z,9.07
2022-11-28T04:35:16.487Z,8.40
2022-11-28T04:37:49.630Z,8.83
2022-11-28T04:40:20.695Z,8.50
2022-11-28T04:42:53.793Z,8.67
2022-11-28T04:45:28.339Z,9.37
2022-11-28T04:47:58.460Z,9.43
2022-11-28T04:50:34.420Z,9.10
2022-11-28T04:53:10.218Z,8.80
2022-11-28T04:55:43.750Z,8.10
2022-11-28T04:58:17.855Z,9.60
2022-11-28T05:00:48.311Z,9.40
2022-11-28T05:03:19.479Z,9.63
2022-11-28T05:05:51.620Z,9.70
2022-11-28T05:08:24.010Z,8.00
2022-11-28T05:10:54.090Z,10.23
2022-11-28T05:13:23.891Z,8.20
2022-11-28T05:15:53.552Z,9.33
2022-11-28T05:18:23.210Z,8.30
2022-11-28T05:20:53.015Z,8.60
2022-11-28T05:23:24.104Z,7.90
2022-11-28T05:25:53.868Z,8.60
2022-11-28T05:28:23.465Z,9.23
2022-11-28T05:31:00.052Z,9.37
2022-11-28T05:33:31.510Z,9.60
2022-11-28T05:36:11.268Z,9.27
2022-11-28T05:38:47.168Z,10.07
2022-11-28T05:41:25.169Z,10.40
2022-11-28T05:43:56.885Z,10.13
2022-11-28T05:46:26.990Z,10.83
2022-11-28T05:48:56.998Z,10.83
2022-11-28T05:51:27.052Z,9.33
2022-11-28T05:53:58.135Z,11.43
2022-11-28T05:56:28.250Z,11.70
2022-11-28T05:58:58.233Z,11.93
2022-11-28T06:01:29.807Z,10.47
2022-11-28T06:04:01.343Z,11.07
2022-11-28T06:06:32.697Z,11.40
2022-11-28T06:09:04.224Z,11.70
2022-11-28T06:11:34.914Z,14.50
2022-11-28T06:14:05.050Z,16.27
2022-11-28T06:16:35.308Z,16.63
2022-11-28T06:19:07.219Z,16.13
2022-11-28T06:21:37.221Z,15.43
2022-11-28T06:24:10.969Z,15.00
2022-11-28T06:26:40.495Z,13.73
2022-11-28T06:29:10.474Z,18.13
2022-11-28T06:31:40.036Z,17.80
2022-11-28T06:34:11.955Z,21.87
2022-11-28T06:36:41.970Z,18.20
2022-11-28T06:39:16.324Z,19.63
2022-11-28T06:41:46.619Z,19.23
2022-11-28T06:44:17.811Z,17.97
2022-11-28T06:46:47.409Z,20.47
2022-11-28T06:49:18.274Z,18.77
2022-11-28T06:51:47.915Z,20.10
2022-11-28T06:54:19.958Z,17.63
2022-11-28T06:56:49.659Z,18.27
2022-11-28T06:59:19.991Z,17.77
2022-11-28T07:01:49.607Z,17.70
2022-11-28T07:04:19.630Z,17.33
2022-11-28T07:06:49.240Z,14.70
2022-11-28T07:09:20.733Z,16.63
2022-11-28T07:11:50.360Z,17.77
2022-11-28T07:14:20.107Z,17.53
2022-11-28T07:16:50.425Z,15.00
2022-11-28T07:19:23.311Z,16.37
2022-11-28T07:21:52.990Z,15.77
2022-11-28T07:24:24.460Z,14.67
2022-11-28T07:26:54.342Z,16.20
2022-11-28T07:29:24.900Z,15.73
2022-11-28T07:31:55.095Z,13.80
2022-11-28T07:34:24.825Z,15.13
2022-11-28T07:36:54.967Z,14.03
2022-11-28T07:39:26.195Z,15.20
2022-11-28T07:41:56.139Z,14.90
2022-11-28T07:44:26.150Z,16.53
2022-11-28T07:46:55.920Z,14.53
2022-11-28T07:49:25.681Z,15.00
2022-11-28T07:51:56.015Z,14.70
2022-11-28T07:54:27.395Z,15.33
2022-11-28T07:57:12.547Z,15.50
2022-11-28T07:59:44.243Z,15.87
2022-11-28T08:02:14.870Z,16.60
2022-11-28T08:04:50.435Z,15.13
2022-11-28T08:07:21.541Z,16.20
2022-11-28T08:09:53.145Z,15.20
2022-11-28T08:12:23.786Z,15.93
2022-11-28T08:14:53.605Z,15.80
2022-11-28T08:17:23.234Z,16.40
2022-11-28T08:19:52.964Z,17.50
2022-11-28T08:22:22.992Z,18.07
2022-11-28T08:24:54.261Z,16.73
2022-11-28T08:27:23.956Z,19.03
2022-11-28T08:29:54.277Z,17.07
2022-11-28T08:32:24.755Z,18.00
2022-11-28T08:34:54.263Z,18.10
2022-11-28T08:37:24.076Z,19.63
2022-11-28T08:39:55.090Z,18.20
2022-11-28T08:42:24.670Z,17.50
2022-11-28T08:44:54.232Z,17.43
2022-11-28T08:47:23.842Z,18.17
2022-11-28T08:49:53.685Z,16.60
2022-11-28T08:52:24.746Z,19.80
2022-11-28T08:54:55.959Z,17.60
2022-11-28T08:57:25.651Z,17.07
2022-11-28T08:59:55.734Z,17.07
2022-11-28T09:02:26.221Z,19.90
2022-11-28T09:04:56.100Z,18.00
2022-11-28T09:07:25.896Z,15.70
2022-11-28T09:09:57.260Z,14.93
2022-11-28T09:12:27.250Z,14.43
2022-11-28T09:14:57.380Z,16.07
2022-11-28T09:17:26.926Z,16.40
2022-11-28T09:19:56.506Z,14.40
2022-11-28T09:22:26.091Z,17.43
2022-11-28T09:24:57.236Z,18.07
2022-11-28T09:27:26.933Z,19.23
2022-11-28T09:29:56.656Z,18.30
2022-11-28T09:32:26.379Z,18.80
2022-11-28T09:34:56.535Z,20.17
2022-11-28T09:37:26.205Z,18.33
2022-11-28T09:40:12.795Z,20.23
2022-11-28T09:42:45.205Z,18.23
2022-11-28T09:45:17.952Z,18.87
2022-11-28T09:47:51.252Z,18.90
2022-11-28T09:50:24.610Z,20.53
2022-11-28T09:53:01.160Z,19.27
2022-11-28T09:55:38.935Z,19.80
2022-11-28T09:58:14.411Z,19.10
2022-11-28T10:00:54.100Z,18.50
2022-11-28T10:03:38.798Z,18.10
2022-11-28T10:06:19.826Z,18.17
2022-11-28T10:09:03.325Z,16.83
2022-11-28T10:11:45.046Z,19.43
2022-11-28T10:14:41.988Z,19.23
2022-11-28T10:17:18.822Z,19.27
2022-11-28T10:19:54.611Z,17.93
2022-11-28T10:22:30.611Z,17.07
2022-11-28T10:25:05.836Z,16.70
2022-11-28T10:27:37.790Z,18.93
2022-11-28T10:30:12.446Z,18.37
2022-11-28T10:32:44.069Z,19.13
2022-11-28T10:35:28.251Z,18.83
2022-11-28T10:37:58.010Z,16.00
2022-11-28T10:40:35.185Z,16.80
2022-11-28T10:43:12.631Z,19.37
2022-11-28T10:45:50.303Z,20.53
2022-11-28T10:48:39.646Z,18.00
2022-11-28T10:51:28.380Z,20.63
2022-11-28T10:54:18.477Z,18.17
2022-11-28T10:56:56.385Z,19.80
2022-11-28T10:59:36.166Z,19.67
2022-11-28T11:02:23.026Z,18.10
2022-11-28T11:04:52.768Z,17.07
2022-11-28T11:07:29.541Z,19.57
2022-11-28T11:10:04.205Z,17.30
2022-11-28T11:12:34.234Z,18.43
2022-11-28T11:15:18.343Z,17.90
2022-11-28T11:17:50.485Z,18.43
2022-11-28T11:20:32.474Z,16.37
2022-11-28T11:23:04.411Z,17.23
2022-11-28T11:25:34.824Z,17.40
2022-11-28T11:28:06.110Z,15.37
2022-11-28T11:30:40.495Z,15.33
2022-11-28T11:33:17.698Z,17.10
2022-11-28T11:35:48.910Z,15.50
2022-11-28T11:38:27.418Z,15.40
2022-11-28T11:40:57.080Z,15.03
2022-11-28T11:43:31.150Z,14.30
2022-11-28T11:46:11.278Z,15.23
2022-11-28T11:48:42.555Z,15.73
2022-11-28T11:51:25.485Z,13.00
2022-11-28T11:54:06.647Z,13.73
2022-11-28T11:56:40.394Z,14.53
2022-11-28T11:59:15.411Z,15.33
2022-11-28T12:01:49.608Z,15.50
2022-11-28T12:04:44.496Z,17.50
2022-11-28T12:07:22.785Z,16.40
2022-11-28T12:09:55.437Z,14.73
2022-11-28T12:12:29.330Z,15.40
2022-11-28T12:14:59.246Z,16.27
2022-11-28T12:17:58.837Z,14.77
2022-11-28T12:20:39.607Z,15.93
2022-11-28T12:23:31.515Z,16.33
2022-11-28T12:26:07.419Z,14.97
2022-11-28T12:28:48.130Z,14.93
2022-11-28T12:31:24.011Z,15.07
2022-11-28T12:34:02.833Z,15.33
2022-11-28T12:36:38.419Z,15.60
2022-11-28T12:39:23.355Z,17.33
2022-11-28T12:42:20.768Z,15.03
2022-11-28T12:45:00.781Z,16.43
2022-11-28T12:47:40.065Z,17.33
2022-11-28T12:50:21.551Z,17.07
2022-11-28T12:52:57.932Z,18.57
2022-11-28T12:55:33.507Z,18.10
2022-11-28T12:58:10.461Z,15.70
2022-11-28T13:00:50.321Z,15.67
2022-11-28T13:03:30.913Z,18.50
2022-11-28T13:06:22.069Z,16.77
2022-11-28T13:09:05.233Z,14.97
2022-11-28T13:11:49.812Z,17.97
2022-11-28T13:14:28.476Z,16.17
2022-11-28T13:17:01.320Z,15.73
2022-11-28T13:19:37.432Z,16.80
2022-11-28T13:22:15.486Z,15.67
2022-11-28T13:24:50.439Z,16.50
2022-11-28T13:27:32.504Z,18.63
2022-11-28T13:30:19.690Z,18.30
2022-11-28T13:32:52.190Z,15.93
2022-11-28T13:35:22.920Z,16.90
2022-11-28T13:40:55.391Z,16.47
2022-11-28T13:43:30.836Z,17.40
2022-11-28T13:46:00.968Z,17.13
2022-11-28T13:49:20.457Z,16.13
2022-11-28T13:51:52.017Z,16.77
2022-11-28T13:54:49.086Z,15.50
2022-11-28T13:57:37.622Z,16.50
2022-11-28T14:00:23.183Z,18.90
2022-11-28T14:02:55.091Z,17.73
2022-11-28T14:05:34.179Z,18.77
2022-11-28T14:08:05.445Z,18.53
2022-11-28T14:11:05.708Z,18.27
2022-11-28T14:14:05.567Z,18.00
2022-11-28T14:16:51.527Z,16.53
2022-11-28T14:19:31.182Z,16.07
2022-11-28T14:22:14.642Z,18.07
2022-11-28T14:24:56.160Z,18.63
2022-11-28T14:27:28.946Z,18.63
2022-11-28T14:30:00.936Z,16.20
2022-11-28T14:32:36.173Z,19.03
2022-11-28T14:35:06.940Z,18.40
2022-11-28T14:37:49.515Z,17.53
2022-11-28T14:41:04.936Z,19.30
2022-11-28T14:43:36.959Z,19.10
2022-11-28T14:46:27.931Z,21.90
2022-11-28T14:49:21.945Z,19.97
2022-11-28T14:52:42.627Z,19.10
2022-11-28T14:55:21.790Z,20.37
2022-11-28T14:57:58.311Z,18.00
2022-11-28T15:00:29.871Z,19.63
2022-11-28T15:03:23.175Z,21.20
2022-11-28T15:05:54.361Z,19.60
2022-11-28T15:08:53.325Z,18.87
2022-11-28T15:11:37.050Z,19.40
2022-11-28T15:14:21.251Z,21.03
2022-11-28T15:16:53.710Z,21.27
2022-11-28T15:19:28.666Z,19.90
2022-11-28T15:21:58.715Z,21.33
2022-11-28T15:24:31.800Z,22.87
2022-11-28T15:27:20.886Z,22.80
2022-11-28T15:29:57.310Z,21.27
2022-11-28T15:32:28.971Z,21.60
2022-11-28T15:35:07.753Z,21.97
2022-11-28T15:37:40.660Z,23.30
2022-11-28T15:40:21.731Z,20.50
2022-11-28T15:42:52.596Z,20.20
2022-11-28T15:45:27.299Z,22.27
2022-11-28T15:47:58.980Z,21.97
2022-11-28T15:50:31.610Z,20.90
2022-11-28T15:53:03.478Z,26.73
2022-11-28T15:55:36.396Z,23.40
2022-11-28T15:58:14.221Z,24.80
2022-11-28T16:00:46.093Z,21.40
2022-11-28T16:03:17.885Z,23.30
2022-11-28T16:05:50.466Z,22.50
2022-11-28T16:08:28.831Z,20.40
2022-11-28T16:10:59.435Z,23.33
2022-11-28T16:13:31.693Z,23.00
2022-11-28T16:16:04.329Z,21.73
2022-11-28T16:18:34.364Z,21.77
2022-11-28T16:21:06.150Z,23.57
2022-11-28T16:23:39.530Z,22.77
2022-11-28T16:26:22.055Z,22.07
2022-11-28T16:29:02.159Z,22.70
2022-11-28T16:31:32.756Z,24.33
2022-11-28T16:34:03.730Z,22.63
2022-11-28T16:36:38.381Z,22.73
2022-11-28T16:39:13.689Z,23.73
2022-11-28T16:41:52.420Z,23.57
2022-11-28T16:44:24.734Z,23.67
2022-11-28T16:46:57.117Z,23.83
2022-11-28T16:49:35.926Z,22.20
2022-11-28T16:52:46.859Z,22.70
2022-11-28T16:55:48.526Z,21.87
2022-11-28T16:58:21.519Z,22.20
2022-11-28T17:01:01.153Z,23.27
2022-11-28T17:03:49.904Z,25.13
2022-11-28T17:06:34.367Z,22.10
2022-11-28T17:09:07.995Z,23.20
2022-11-28T17:11:39.942Z,23.70
2022-11-28T17:14:13.640Z,25.37
2022-11-28T17:16:44.211Z,25.80
2022-11-28T17:19:14.356Z,25.00
2022-11-28T17:21:46.496Z,24.27
2022-11-28T17:24:21.095Z,23.93
2022-11-28T17:26:52.056Z,26.53
2022-11-28T17:29:25.473Z,28.00
2022-11-28T17:31:57.595Z,24.93
2022-11-28T17:34:31.201Z,23.10
2022-11-28T17:37:01.870Z,27.37
2022-11-28T17:39:33.275Z,25.10
2022-11-28T17:42:03.381Z,26.07
2022-11-28T17:44:34.885Z,25.10
2022-11-28T17:47:05.129Z,24.87
2022-11-28T17:49:34.935Z,24.07
2022-11-28T17:52:04.531Z,24.47
2022-11-28T17:54:35.861Z,24.03
2022-11-28T17:57:05.650Z,25.50
2022-11-28T17:59:36.354Z,22.60
2022-11-28T18:02:06.351Z,22.70
2022-11-28T18:04:38.291Z,22.93
2022-11-28T18:07:08.146Z,23.27
2022-11-28T18:09:40.400Z,22.27
2022-11-28T18:12:10.224Z,23.80
2022-11-28T18:14:40.106Z,21.37
2022-11-28T18:17:09.791Z,22.00
2022-11-28T18:19:41.487Z,22.93
2022-11-28T18:22:11.877Z,22.50
2022-11-28T18:24:43.429Z,21.77
2022-11-28T18:27:13.026Z,24.23
2022-11-28T18:29:43.084Z,25.93
2022-11-28T18:32:13.375Z,24.60
2022-11-28T18:34:44.124Z,24.50
2022-11-28T18:37:13.979Z,22.07
2022-11-28T18:39:45.940Z,24.57
2022-11-28T18:42:17.125Z,24.60
2022-11-28T18:44:46.976Z,23.20
2022-11-28T18:47:16.695Z,24.03
2022-11-28T18:49:46.285Z,23.73
2022-11-28T18:52:16.190Z,26.00
2022-11-28T18:54:48.402Z,26.20
2022-11-28T18:57:17.951Z,23.77
2022-11-28T18:59:54.675Z,25.93
2022-11-28T19:02:26.331Z,25.07
2022-11-28T19:04:56.425Z,24.60
2022-11-28T19:07:27.660Z,24.13
2022-11-28T19:10:00.188Z,25.13
2022-11-28T19:12:30.176Z,25.77
2022-11-28T19:15:02.357Z,24.67
2022-11-28T19:17:32.530Z,24.67
2022-11-28T19:20:03.030Z,24.73
2022-11-28T19:22:37.186Z,26.07
2022-11-28T19:25:10.553Z,25.63
2022-11-28T19:27:40.345Z,25.03
2022-11-28T19:30:11.760Z,26.13
2022-11-28T19:32:43.198Z,25.63
2022-11-28T19:35:13.486Z,26.67
2022-11-28T19:37:44.949Z,26.60
2022-11-28T19:40:17.150Z,25.33
2022-11-28T19:42:47.274Z,28.20
2022-11-28T19:45:17.795Z,28.00
2022-11-28T19:47:48.932Z,30.10
2022-11-28T19:50:18.764Z,28.77
2022-11-28T19:52:48.437Z,28.97
2022-11-28T19:55:20.205Z,30.67
2022-11-28T19:57:50.030Z,29.60
2022-11-28T20:00:20.350Z,30.97
2022-11-28T20:02:53.234Z,31.40
2022-11-28T20:05:23.150Z,31.13
2022-11-28T20:07:58.167Z,29.73
2022-11-28T20:10:30.159Z,29.13
2022-11-28T20:12:59.957Z,30.93
2022-11-28T20:15:30.134Z,30.50
2022-11-28T20:18:00.595Z,30.93
2022-11-28T20:20:30.979Z,31.67
2022-11-28T20:23:01.698Z,30.10
2022-11-28T20:25:33.756Z,28.50
2022-11-28T20:28:03.479Z,33.03
2022-11-28T20:30:33.021Z,32.17
2022-11-28T20:33:02.476Z,32.63
2022-11-28T20:35:31.735Z,30.80
2022-11-28T20:38:01.394Z,32.43
2022-11-28T20:40:33.054Z,31.53
2022-11-28T20:43:03.501Z,30.43
2022-11-28T20:45:34.508Z,30.37
2022-11-28T20:48:04.268Z,32.47
2022-11-28T20:50:33.931Z,30.23
2022-11-28T20:53:03.646Z,32.27
2022-11-28T20:55:34.634Z,31.87
2022-11-28T20:58:04.405Z,33.00
2022-11-28T21:00:34.031Z,33.37
2022-11-28T21:03:03.516Z,32.17
2022-11-28T21:05:32.991Z,31.80
2022-11-28T21:08:04.207Z,34.40
2022-11-28T21:10:36.295Z,33.50
2022-11-28T21:13:06.429Z,32.93
2022-11-28T21:15:36.120Z,36.33
2022-11-28T21:18:06.145Z,30.80
2022-11-28T21:20:36.439Z,34.87
2022-11-28T21:23:06.601Z,30.37
2022-11-28T21:25:39.426Z,32.93
2022-11-28T21:28:11.769Z,31.23
2022-11-28T21:30:45.516Z,34.13
2022-11-28T21:33:17.417Z,30.87
2022-11-28T21:35:48.294Z,32.67
2022-11-28T21:38:17.944Z,32.77
2022-11-28T21:40:55.626Z,33.30
2022-11-28T21:43:28.754Z,32.47
2022-11-28T21:46:04.344Z,34.50
2022-11-28T21:48:35.970Z,34.17
2022-11-28T21:51:06.839Z,32.70
2022-11-28T21:53:37.064Z,35.70
2022-11-28T21:56:11.425Z,33.67
2022-11-28T21:58:41.024Z,33.80
2022-11-28T22:01:12.934Z,34.50
2022-11-28T22:03:44.033Z,32.97
2022-11-28T22:06:17.036Z,37.27
2022-11-28T22:08:48.719Z,34.07
2022-11-28T22:11:21.755Z,33.60
2022-11-28T22:13:53.108Z,33.97
2022-11-28T22:16:24.634Z,35.30
2022-11-28T22:18:56.945Z,33.90
2022-11-28T22:21:51.171Z,37.13
2022-11-28T22:24:19.321Z,33.07
2022-11-28T22:26:51.151Z,34.60
2022-11-28T22:29:21.483Z,32.17
2022-11-28T22:31:51.435Z,34.90
2022-11-28T22:34:21.214Z,33.50
2022-11-28T22:36:53.180Z,38.17
2022-11-28T22:39:23.312Z,34.53
2022-11-28T22:41:54.494Z,35.17
2022-11-28T22:44:24.278Z,35.93
2022-11-28T22:46:54.011Z,33.57
2022-11-28T22:49:23.473Z,35.30
2022-11-28T22:51:52.854Z,34.93
2022-11-28T22:54:22.614Z,33.90
2022-11-28T22:56:54.384Z,35.53
2022-11-28T22:59:24.380Z,35.30
2022-11-28T23:01:54.407Z,36.77
2022-11-28T23:04:24.699Z,35.57
2022-11-28T23:06:54.044Z,33.73
2022-11-28T23:09:24.484Z,31.93
2022-11-28T23:11:55.715Z,37.53
2022-11-28T23:14:25.855Z,34.40
2022-11-28T23:16:55.430Z,34.60
2022-11-28T23:19:26.727Z,36.87
2022-11-28T23:21:56.534Z,34.67
2022-11-28T23:24:26.361Z,33.30
2022-11-28T23:26:58.105Z,34.73
2022-11-28T23:29:27.836Z,34.40
2022-11-28T23:31:57.568Z,34.67
2022-11-28T23:34:27.275Z,36.00
2022-11-28T23:36:57.235Z,36.47
2022-11-28T23:39:27.440Z,32.60
2022-11-28T23:42:00.258Z,37.33
2022-11-28T23:44:29.999Z,35.50
2022-11-28T23:46:59.745Z,32.13
2022-11-28T23:49:29.291Z,33.83
2022-11-28T23:51:58.905Z,34.40
2022-11-28T23:54:28.856Z,35.93
2022-11-28T23:56:59.905Z,35.73
2022-11-28T23:59:29.571Z,32.53
